createdAt,value
2022-10-14T00:01:15.673Z,71.88
2022-10-14T00:03:43.790Z,71.78
2022-10-14T00:06:14.150Z,71.67
2022-10-14T00:08:44.909Z,71.69
2022-10-14T00:11:14.947Z,71.70
2022-10-14T00:13:42.794Z,71.80
2022-10-14T00:16:17.339Z,71.57
2022-10-14T00:18:45.550Z,71.61
2022-10-14T00:21:13.256Z,71.53
2022-10-14T00:23:41.419Z,71.54
2022-10-14T00:26:16.733Z,71.65
2022-10-14T00:28:44.782Z,71.50
2022-10-14T00:31:13.093Z,71.68
2022-10-14T00:33:40.958Z,71.55
2022-10-14T00:36:10.376Z,71.49
2022-10-14T00:38:39.475Z,71.47
2022-10-14T00:41:08.484Z,71.49
2022-10-14T00:46:33.533Z,71.59
2022-10-14T00:49:05.378Z,71.62
2022-10-14T00:51:34.641Z,71.70
2022-10-14T00:54:03.035Z,71.63
2022-10-14T00:56:31.976Z,71.65
2022-10-14T00:59:02.416Z,71.50
2022-10-14T01:01:32.010Z,71.58
2022-10-14T01:03:59.680Z,71.91
2022-10-14T01:06:42.937Z,71.61
2022-10-14T01:09:21.094Z,71.69
2022-10-14T01:12:26.754Z,71.66
2022-10-14T01:14:59.949Z,71.60
2022-10-14T01:17:40.362Z,71.65
2022-10-14T01:20:34.802Z,71.60
2022-10-14T01:23:20.914Z,71.71
2022-10-14T01:25:58.173Z,71.73
2022-10-14T01:28:38.501Z,71.55
2022-10-14T01:31:12.326Z,71.80
2022-10-14T01:33:44.500Z,71.78
2022-10-14T01:36:19.480Z,71.93
2022-10-14T01:38:52.486Z,71.97
2022-10-14T01:41:24.847Z,72.02
2022-10-14T01:43:55.249Z,71.91
2022-10-14T01:46:28.106Z,72.00
2022-10-14T01:49:00.520Z,71.99
2022-10-14T01:51:31.751Z,72.12
2022-10-14T01:54:04.417Z,72.16
2022-10-14T01:56:40.164Z,72.15
2022-10-14T01:59:11.991Z,72.06
2022-10-14T02:01:41.740Z,72.19
2022-10-14T02:04:17.190Z,72.03
2022-10-14T02:06:48.049Z,71.77
2022-10-14T02:09:23.819Z,71.83
2022-10-14T02:12:05.214Z,71.96
2022-10-14T02:14:40.777Z,71.78
2022-10-14T02:17:19.405Z,71.81
2022-10-14T02:19:51.931Z,71.92
2022-10-14T02:22:26.910Z,72.05
2022-10-14T02:24:58.994Z,71.81
2022-10-14T02:27:29.845Z,71.92
2022-10-14T02:30:01.018Z,71.83
2022-10-14T02:32:32.270Z,71.76
2022-10-14T02:35:02.436Z,71.81
2022-10-14T02:37:33.323Z,71.78
2022-10-14T02:40:09.051Z,71.92
2022-10-14T02:42:37.342Z,71.89
2022-10-14T02:45:06.144Z,71.69
2022-10-14T02:47:35.704Z,71.88
2022-10-14T02:50:04.848Z,71.70
2022-10-14T02:52:32.534Z,71.53
2022-10-14T02:55:00.817Z,71.67
2022-10-14T02:57:29.093Z,71.75
2022-10-14T02:59:56.754Z,71.72
2022-10-14T03:02:24.869Z,71.56
2022-10-14T03:04:54.402Z,71.72
2022-10-14T03:07:22.082Z,71.81
2022-10-14T03:09:50.149Z,71.66
2022-10-14T03:12:18.447Z,71.67
2022-10-14T03:14:46.145Z,71.68
2022-10-14T03:17:13.847Z,71.52
2022-10-14T03:19:41.663Z,71.64
2022-10-14T03:22:10.715Z,71.69
2022-10-14T03:24:39.323Z,71.64
2022-10-14T03:27:07.579Z,71.72
2022-10-14T03:29:35.265Z,71.77
2022-10-14T03:32:03.434Z,71.79
2022-10-14T03:34:31.601Z,71.81
2022-10-14T03:36:59.321Z,71.66
2022-10-14T03:39:28.698Z,71.70
2022-10-14T03:41:56.868Z,71.90
2022-10-14T03:44:24.572Z,71.39
2022-10-14T03:46:52.814Z,71.88
2022-10-14T03:49:21.131Z,71.82
2022-10-14T03:51:48.808Z,71.73
2022-10-14T03:54:17.103Z,71.77
2022-10-14T03:56:46.634Z,71.94
2022-10-14T03:59:14.304Z,71.83
2022-10-14T04:01:42.634Z,71.75
2022-10-14T04:04:10.969Z,71.67
2022-10-14T04:06:38.746Z,71.73
2022-10-14T04:09:06.899Z,71.62
2022-10-14T04:11:35.147Z,71.50
2022-10-14T04:14:04.245Z,71.71
2022-10-14T04:16:32.361Z,71.56
2022-10-14T04:19:00.527Z,71.57
2022-10-14T04:21:28.291Z,71.81
2022-10-14T04:23:56.272Z,71.70
2022-10-14T04:26:24.401Z,71.73
2022-10-14T04:28:52.220Z,71.62
2022-10-14T04:31:23.101Z,71.86
2022-10-14T04:33:51.285Z,71.65
2022-10-14T04:36:18.968Z,71.73
2022-10-14T04:38:47.368Z,71.86
2022-10-14T04:41:15.135Z,71.77
2022-10-14T04:43:42.787Z,71.66
2022-10-14T04:46:10.956Z,71.79
2022-10-14T04:48:40.810Z,71.73
2022-10-14T04:51:08.489Z,71.81
2022-10-14T04:53:36.627Z,71.62
2022-10-14T04:56:04.882Z,71.69
2022-10-14T04:58:32.586Z,71.77
2022-10-14T05:01:00.531Z,71.94
2022-10-14T05:03:28.789Z,71.87
2022-10-14T05:05:57.829Z,71.76
2022-10-14T05:08:25.958Z,71.98
2022-10-14T05:10:54.038Z,71.89
2022-10-14T05:13:21.706Z,71.89
2022-10-14T05:15:50.065Z,71.88
2022-10-14T05:18:17.875Z,71.93
2022-10-14T05:20:45.822Z,72.08
2022-10-14T05:23:15.606Z,72.04
2022-10-14T05:25:43.944Z,72.13
2022-10-14T05:28:11.630Z,72.05
2022-10-14T05:30:39.661Z,72.38
2022-10-14T05:33:07.890Z,72.05
2022-10-14T05:35:57.600Z,72.17
2022-10-14T05:38:24.956Z,72.12
2022-10-14T05:40:53.657Z,72.50
2022-10-14T05:43:21.554Z,72.02
2022-10-14T05:45:49.654Z,72.17
2022-10-14T05:48:17.923Z,72.24
2022-10-14T05:50:45.774Z,72.17
2022-10-14T05:53:14.253Z,72.26
2022-10-14T05:55:43.508Z,72.12
2022-10-14T05:58:11.187Z,72.14
2022-10-14T06:00:39.482Z,72.23
2022-10-14T06:03:07.345Z,72.24
2022-10-14T06:05:38.112Z,72.17
2022-10-14T06:08:06.248Z,72.08
2022-10-14T06:10:35.453Z,72.16
2022-10-14T06:13:04.607Z,72.18
2022-10-14T06:15:32.349Z,72.08
2022-10-14T06:18:00.316Z,72.20
2022-10-14T06:20:28.069Z,72.12
2022-10-14T06:22:55.743Z,72.25
2022-10-14T06:25:23.878Z,72.26
2022-10-14T06:27:51.556Z,72.08
2022-10-14T06:30:21.226Z,72.23
2022-10-14T06:32:48.920Z,71.98
2022-10-14T06:35:17.187Z,72.09
2022-10-14T06:37:46.889Z,72.04
2022-10-14T06:40:15.002Z,72.19
2022-10-14T06:42:42.781Z,72.17
2022-10-14T06:45:11.655Z,72.39
2022-10-14T06:47:40.973Z,72.22
2022-10-14T06:50:12.318Z,72.34
2022-10-14T06:52:40.991Z,72.23
2022-10-14T06:55:09.590Z,72.37
2022-10-14T06:57:37.851Z,72.11
2022-10-14T07:00:07.053Z,72.21
2022-10-14T07:02:34.967Z,71.84
2022-10-14T07:05:04.142Z,72.21
2022-10-14T07:07:32.956Z,72.39
2022-10-14T07:10:00.903Z,72.32
2022-10-14T07:12:29.163Z,72.41
2022-10-14T07:14:57.028Z,72.15
2022-10-14T07:17:25.011Z,72.40
2022-10-14T07:19:52.883Z,72.28
2022-10-14T07:22:22.172Z,72.18
2022-10-14T07:24:50.031Z,71.96
2022-10-14T07:27:18.814Z,72.30
2022-10-14T07:29:46.995Z,72.34
2022-10-14T07:32:14.793Z,72.41
2022-10-14T07:34:42.658Z,72.48
2022-10-14T07:37:10.499Z,72.25
2022-10-14T07:39:40.210Z,72.48
2022-10-14T07:42:07.898Z,72.36
2022-10-14T07:44:37.079Z,72.27
2022-10-14T07:47:05.924Z,72.43
2022-10-14T07:49:33.672Z,72.32
2022-10-14T07:52:01.358Z,72.25
2022-10-14T07:54:31.223Z,72.43
2022-10-14T07:57:00.297Z,72.23
2022-10-14T07:59:28.359Z,72.56
2022-10-14T08:01:56.723Z,72.12
2022-10-14T08:04:25.212Z,72.56
2022-10-14T08:06:54.100Z,72.44
2022-10-14T08:09:22.096Z,72.65
2022-10-14T08:11:50.335Z,72.29
2022-10-14T08:14:19.543Z,72.24
2022-10-14T08:16:48.009Z,72.25
2022-10-14T08:19:16.190Z,72.29
2022-10-14T08:21:44.997Z,72.46
2022-10-14T08:24:16.438Z,72.49
2022-10-14T08:26:51.682Z,72.47
2022-10-14T08:29:23.962Z,72.48
2022-10-14T08:31:55.640Z,72.58
2022-10-14T08:34:25.497Z,72.43
2022-10-14T08:41:00.339Z,72.89
2022-10-14T08:43:34.649Z,73.19
2022-10-14T08:46:12.415Z,73.67
2022-10-14T08:48:41.083Z,73.43
2022-10-14T08:51:15.248Z,73.72
2022-10-14T08:53:47.391Z,73.14
2022-10-14T08:56:16.237Z,73.11
2022-10-14T08:58:48.283Z,73.17
2022-10-14T09:01:27.267Z,73.25
2022-10-14T09:04:04.127Z,73.01
2022-10-14T09:06:35.395Z,72.91
2022-10-14T09:09:10.559Z,72.69
2022-10-14T09:11:44.439Z,72.72
2022-10-14T09:14:21.271Z,72.40
2022-10-14T09:16:59.254Z,72.80
2022-10-14T09:19:36.566Z,72.72
2022-10-14T09:22:04.396Z,72.65
2022-10-14T09:24:37.121Z,72.79
2022-10-14T09:27:09.277Z,72.55
2022-10-14T09:29:45.280Z,72.55
2022-10-14T09:32:28.585Z,72.63
2022-10-14T09:35:00.119Z,72.69
2022-10-14T09:37:30.772Z,72.48
2022-10-14T09:40:02.305Z,73.01
2022-10-14T09:42:43.352Z,73.13
2022-10-14T09:45:13.509Z,72.73
2022-10-14T09:52:01.196Z,72.39
2022-10-14T09:54:32.075Z,72.27
2022-10-14T09:57:04.016Z,72.71
2022-10-14T09:59:36.241Z,72.47
2022-10-14T10:02:09.637Z,72.63
2022-10-14T10:04:48.094Z,72.63
2022-10-14T10:07:36.394Z,72.62
2022-10-14T10:10:23.384Z,72.59
2022-10-14T10:13:01.632Z,72.47
2022-10-14T10:15:36.302Z,72.31
2022-10-14T12:00:21.428Z,73.33
2022-10-14T12:02:55.711Z,73.50
2022-10-14T12:05:31.427Z,73.92
2022-10-14T12:08:10.699Z,73.87
2022-10-14T12:10:44.839Z,73.67
2022-10-14T12:13:16.822Z,72.97
2022-10-14T12:15:51.686Z,72.72
2022-10-14T12:18:20.367Z,72.52
2022-10-14T12:20:54.063Z,71.93
2022-10-14T12:23:32.766Z,71.90
2022-10-14T12:26:07.733Z,71.66
2022-10-14T12:28:38.215Z,71.24
2022-10-14T12:31:33.848Z,70.90
2022-10-14T12:34:34.770Z,70.35
2022-10-14T12:37:50.261Z,70.27
2022-10-14T12:40:25.718Z,69.78
2022-10-14T12:43:14.406Z,70.42
2022-10-14T12:45:52.057Z,70.17
2022-10-14T12:48:23.627Z,70.13
2022-10-14T12:50:57.233Z,70.19
2022-10-14T12:53:27.927Z,70.09
2022-10-14T12:55:59.569Z,69.74
2022-10-14T12:58:38.013Z,70.25
2022-10-14T13:01:17.833Z,70.31
2022-10-14T13:03:59.303Z,70.60
2022-10-14T16:27:21.403Z,67.25
2022-10-14T16:29:49.615Z,67.23
2022-10-14T16:32:17.962Z,67.31
2022-10-14T16:34:47.141Z,67.18
2022-10-14T16:37:14.823Z,67.14
2022-10-14T16:39:42.475Z,67.37
2022-10-14T16:42:10.695Z,67.27
2022-10-14T16:44:39.810Z,67.05
2022-10-14T16:47:20.758Z,66.83
2022-10-14T16:49:51.843Z,66.82
2022-10-14T16:52:21.421Z,66.71
2022-10-14T16:54:49.477Z,66.97
2022-10-14T16:57:17.175Z,66.78
2022-10-14T16:59:46.960Z,66.78
2022-10-14T17:02:17.340Z,66.65
2022-10-14T17:04:47.095Z,66.74
2022-10-14T17:07:17.636Z,66.70
2022-10-14T17:09:45.383Z,66.68
2022-10-14T17:12:14.256Z,66.66
2022-10-14T17:14:42.884Z,66.35
2022-10-14T17:17:13.500Z,66.43
2022-10-14T17:19:43.360Z,66.35
2022-10-14T17:22:11.141Z,66.08
2022-10-14T17:24:39.287Z,66.31
2022-10-14T17:27:06.955Z,66.22
2022-10-14T17:29:34.771Z,66.43
2022-10-14T17:32:02.655Z,66.33
2022-10-14T17:34:32.748Z,66.07
2022-10-14T17:37:00.583Z,66.12
2022-10-14T17:39:29.889Z,66.10
2022-10-14T17:42:00.650Z,66.32
2022-10-14T17:44:29.827Z,66.43
2022-10-14T17:46:59.254Z,66.02
2022-10-14T17:49:27.004Z,66.57
2022-10-14T17:51:56.226Z,66.44
2022-10-14T17:54:23.845Z,66.50
2022-10-14T17:56:51.489Z,66.54
2022-10-14T17:59:19.326Z,66.75
2022-10-14T18:02:02.208Z,66.62
2022-10-14T18:04:32.774Z,67.08
2022-10-14T18:07:02.182Z,66.57
2022-10-14T18:09:29.835Z,66.58
2022-10-14T18:12:13.405Z,66.67
2022-10-14T18:14:41.428Z,67.18
2022-10-14T18:17:11.114Z,66.99
2022-10-14T18:19:39.364Z,67.08
2022-10-14T18:22:10.011Z,67.06
2022-10-14T18:24:39.386Z,67.06
2022-10-14T18:27:07.306Z,66.92
2022-10-14T18:29:34.971Z,67.28
2022-10-14T18:32:02.874Z,67.37
2022-10-14T18:34:30.752Z,67.42
2022-10-14T18:36:58.501Z,67.51
2022-10-14T18:39:28.211Z,67.67
2022-10-14T18:41:55.882Z,67.85
2022-10-14T18:44:26.509Z,67.90
2022-10-14T18:46:54.650Z,67.85
2022-10-14T18:49:24.274Z,67.71
2022-10-14T18:51:56.230Z,67.76
2022-10-14T18:54:24.882Z,67.99
2022-10-14T18:56:54.837Z,67.88
2022-10-14T18:59:24.794Z,67.96
2022-10-14T19:01:53.394Z,68.06
2022-10-14T19:04:24.036Z,68.17
2022-10-14T19:06:53.364Z,68.04
2022-10-14T19:09:24.621Z,67.87
2022-10-14T19:11:55.422Z,67.74
2022-10-14T19:14:23.115Z,67.90
2022-10-14T19:16:50.873Z,67.70
2022-10-14T19:19:20.894Z,67.76
2022-10-14T19:21:50.335Z,67.60
2022-10-14T19:24:18.153Z,67.79
2022-10-14T19:26:47.883Z,67.61
2022-10-14T19:29:17.921Z,67.52
2022-10-14T19:31:45.871Z,67.59
2022-10-14T19:34:17.055Z,67.55
2022-10-14T19:36:45.798Z,67.91
2022-10-14T19:39:17.855Z,67.87
2022-10-14T19:41:47.298Z,67.71
2022-10-14T19:44:18.488Z,67.82
2022-10-14T19:46:47.601Z,67.84
2022-10-14T19:49:16.785Z,67.97
2022-10-14T19:51:46.534Z,67.99
2022-10-14T19:54:14.591Z,67.95
2022-10-14T19:56:42.802Z,68.19
2022-10-14T19:59:14.347Z,68.17
2022-10-14T20:01:43.460Z,68.06
2022-10-14T20:04:11.267Z,68.03
2022-10-14T20:06:40.329Z,68.22
2022-10-14T20:09:08.954Z,68.24
2022-10-14T20:11:36.966Z,68.14
2022-10-14T20:14:04.603Z,68.05
2022-10-14T20:16:32.282Z,68.08
2022-10-14T20:19:01.860Z,68.21
2022-10-14T20:21:30.443Z,68.81
2022-10-14T20:23:59.107Z,68.25
2022-10-14T20:26:27.247Z,68.30
2022-10-14T20:28:55.805Z,68.15
2022-10-14T20:31:26.138Z,68.25
2022-10-14T20:33:56.575Z,68.20
2022-10-14T20:36:25.666Z,68.34
2022-10-14T20:38:53.607Z,68.33
2022-10-14T20:41:22.857Z,68.31
2022-10-14T20:43:51.378Z,68.42
2022-10-14T20:46:19.671Z,68.31
2022-10-14T20:48:47.587Z,68.39
2022-10-14T20:51:17.568Z,68.54
2022-10-14T20:53:46.841Z,68.75
2022-10-14T20:56:15.143Z,68.88
2022-10-14T20:58:43.832Z,68.94
2022-10-14T21:01:15.074Z,68.86
2022-10-14T21:03:44.938Z,68.95
2022-10-14T21:06:15.721Z,68.91
2022-10-14T21:08:44.799Z,69.13
2022-10-14T21:11:17.070Z,68.96
2022-10-14T21:13:46.752Z,69.09
2022-10-14T21:16:16.782Z,69.32
2022-10-14T21:18:49.120Z,68.93
2022-10-14T21:21:18.552Z,69.02
2022-10-14T21:23:46.604Z,68.89
2022-10-14T21:26:16.386Z,69.02
2022-10-14T21:28:44.477Z,69.27
2022-10-14T21:31:17.516Z,69.14
2022-10-14T21:33:47.083Z,69.33
2022-10-14T21:36:16.962Z,69.23
2022-10-14T21:38:45.392Z,68.91
2022-10-14T21:41:13.212Z,68.87
2022-10-14T21:43:42.742Z,69.01
2022-10-14T21:46:12.328Z,68.97
2022-10-14T21:48:40.896Z,68.92
2022-10-14T21:51:11.635Z,68.87
2022-10-14T21:53:40.381Z,68.97
2022-10-14T21:56:09.204Z,68.98
2022-10-14T21:58:37.509Z,69.10
2022-10-14T22:01:08.546Z,69.07
2022-10-14T22:03:37.751Z,68.89
2022-10-14T22:06:08.172Z,69.04
2022-10-14T22:08:38.353Z,68.94
2022-10-14T22:11:07.579Z,68.71
2022-10-14T22:13:36.325Z,68.89
2022-10-14T22:16:04.347Z,68.78
2022-10-14T22:18:33.545Z,68.75
2022-10-14T22:21:05.325Z,68.76
2022-10-14T22:23:33.116Z,68.83
2022-10-14T22:26:02.154Z,68.90
2022-10-14T22:28:31.358Z,68.95
2022-10-14T22:31:05.360Z,68.80
2022-10-14T22:33:38.192Z,68.80
2022-10-14T22:36:07.224Z,68.69
2022-10-14T22:38:35.157Z,68.68
2022-10-14T22:41:03.598Z,68.72
2022-10-14T22:43:31.380Z,68.71
2022-10-14T22:46:03.825Z,68.47
2022-10-14T22:48:32.600Z,68.69
2022-10-14T22:51:05.435Z,68.79
2022-10-14T22:53:33.263Z,68.90
2022-10-14T22:56:01.482Z,68.60
2022-10-14T22:58:30.452Z,68.79
2022-10-14T23:00:58.190Z,68.91
2022-10-14T23:03:27.198Z,68.88
2022-10-14T23:06:00.753Z,68.96
2022-10-14T23:08:30.583Z,68.99
2022-10-14T23:10:58.475Z,69.13
2022-10-14T23:13:26.923Z,69.23
2022-10-14T23:15:58.511Z,69.43
2022-10-14T23:18:27.913Z,69.20
2022-10-14T23:20:56.283Z,69.27
2022-10-14T23:23:24.351Z,69.34
2022-10-14T23:25:53.757Z,69.43
2022-10-14T23:28:21.511Z,69.43
2022-10-14T23:30:49.184Z,69.63
2022-10-14T23:33:17.381Z,69.50
2022-10-14T23:35:45.018Z,69.53
2022-10-14T23:38:13.415Z,69.48
2022-10-14T23:40:41.497Z,69.51
2022-10-14T23:43:10.541Z,69.63
2022-10-14T23:45:38.683Z,69.33
2022-10-14T23:48:07.540Z,69.41
2022-10-14T23:50:35.723Z,69.29
2022-10-14T23:53:03.810Z,69.32
2022-10-14T23:55:31.544Z,69.40
2022-10-14T23:57:59.770Z,69.45
